createdAt,value
2023-01-06T00:00:47.623Z,2.63
2023-01-06T00:03:20.789Z,2.97
2023-01-06T00:05:51.451Z,3.28
2023-01-06T00:08:21.828Z,3.17
2023-01-06T00:10:54.816Z,3.47
2023-01-06T00:13:29.910Z,2.75
2023-01-06T00:16:02.663Z,2.20
2023-01-06T00:18:35.315Z,2.28
2023-01-06T00:21:06.009Z,3.25
2023-01-06T00:23:44.546Z,2.83
2023-01-06T00:26:17.349Z,3.30
2023-01-06T00:28:47.528Z,2.53
2023-01-06T00:31:22.245Z,3.13
2023-01-06T00:33:52.622Z,2.83
2023-01-06T00:36:24.351Z,2.95
2023-01-06T00:38:58.096Z,2.35
2023-01-06T00:41:45.679Z,7.53
2023-01-06T00:44:15.895Z,3.50
2023-01-06T00:46:46.245Z,2.13
2023-01-06T00:49:16.522Z,2.88
2023-01-06T00:51:51.984Z,3.20
2023-01-06T00:54:23.949Z,3.60
2023-01-06T00:57:00.214Z,3.10
2023-01-06T00:59:30.456Z,4.07
2023-01-06T01:02:01.418Z,2.38
2023-01-06T01:04:32.311Z,3.38
2023-01-06T01:07:03.416Z,3.03
2023-01-06T01:09:35.843Z,2.60
2023-01-06T01:12:12.960Z,3.90
2023-01-06T01:14:49.836Z,3.92
2023-01-06T01:17:26.206Z,4.15
2023-01-06T01:20:01.215Z,2.60
2023-01-06T01:22:33.197Z,3.47
2023-01-06T01:25:06.260Z,3.42
2023-01-06T01:27:41.672Z,2.47
2023-01-06T01:30:14.950Z,3.95
2023-01-06T01:32:49.342Z,3.22
2023-01-06T01:35:19.576Z,2.75
2023-01-06T01:37:53.380Z,2.78
2023-01-06T01:40:24.951Z,3.28
2023-01-06T01:43:01.248Z,3.42
2023-01-06T01:45:32.595Z,2.70
2023-01-06T01:48:06.258Z,2.50
2023-01-06T01:50:49.853Z,4.10
2023-01-06T01:53:23.672Z,3.05
2023-01-06T01:55:58.183Z,3.22
2023-01-06T01:58:35.591Z,2.65
2023-01-06T02:01:06.337Z,2.95
2023-01-06T02:03:36.672Z,3.72
2023-01-06T02:06:12.991Z,2.30
2023-01-06T02:08:48.070Z,2.83
2023-01-06T02:11:21.971Z,2.58
2023-01-06T02:14:13.435Z,4.45
2023-01-06T02:17:00.428Z,2.40
2023-01-06T02:20:06.360Z,2.42
2023-01-06T02:22:59.010Z,2.92
2023-01-06T02:26:02.726Z,3.42
2023-01-06T02:29:05.276Z,3.72
2023-01-06T02:31:59.726Z,2.00
2023-01-06T02:34:45.220Z,2.95
2023-01-06T02:37:27.885Z,3.15
2023-01-06T02:40:12.983Z,2.45
2023-01-06T02:42:48.682Z,2.72
2023-01-06T02:45:30.931Z,3.03
2023-01-06T02:48:13.390Z,3.17
2023-01-06T02:50:50.116Z,2.97
2023-01-06T02:53:28.685Z,3.42
2023-01-06T02:56:03.071Z,4.78
2023-01-06T02:58:38.287Z,3.05
2023-01-06T03:01:14.458Z,3.47
2023-01-06T03:03:54.238Z,4.65
2023-01-06T03:06:29.505Z,5.88
2023-01-06T03:09:01.268Z,3.22
2023-01-06T03:11:37.241Z,3.00
2023-01-06T03:14:15.321Z,3.58
2023-01-06T03:16:46.710Z,3.83
2023-01-06T03:19:20.022Z,3.20
2023-01-06T03:21:54.606Z,3.85
2023-01-06T03:24:26.138Z,6.40
2023-01-06T03:26:56.693Z,3.83
2023-01-06T03:29:27.654Z,3.75
2023-01-06T03:32:04.590Z,3.78
2023-01-06T03:34:54.817Z,4.03
2023-01-06T03:37:34.161Z,4.95
2023-01-06T03:40:13.153Z,4.57
2023-01-06T03:43:01.899Z,5.78
2023-01-06T03:46:18.375Z,3.88
2023-01-06T03:49:01.977Z,5.82
2023-01-06T03:51:47.213Z,6.20
2023-01-06T03:54:27.765Z,6.43
2023-01-06T03:57:11.634Z,6.20
2023-01-06T04:00:10.468Z,3.83
2023-01-06T04:02:42.611Z,5.13
2023-01-06T04:05:15.852Z,5.05
2023-01-06T04:07:49.847Z,5.30
2023-01-06T04:10:22.136Z,4.72
2023-01-06T04:12:49.723Z,7.50
2023-01-06T04:15:22.203Z,5.32
2023-01-06T04:17:53.076Z,6.38
2023-01-06T04:20:28.165Z,4.90
2023-01-06T04:23:01.269Z,4.30
2023-01-06T04:25:43.552Z,10.13
2023-01-06T04:28:14.889Z,4.43
2023-01-06T04:30:45.889Z,8.02
2023-01-06T04:33:19.149Z,10.88
2023-01-06T04:35:49.399Z,7.35
2023-01-06T04:38:22.250Z,5.85
2023-01-06T04:40:55.954Z,6.05
2023-01-06T04:43:27.658Z,5.68
2023-01-06T04:46:04.939Z,4.75
2023-01-06T04:48:36.054Z,4.32
2023-01-06T04:51:07.886Z,6.20
2023-01-06T04:56:15.733Z,4.38
2023-01-06T04:58:46.073Z,4.50
2023-01-06T05:01:16.764Z,5.57
2023-01-06T05:03:46.978Z,4.38
2023-01-06T05:06:17.333Z,9.30
2023-01-06T05:08:50.957Z,5.75
2023-01-06T05:11:26.143Z,4.45
2023-01-06T05:13:57.502Z,6.32
2023-01-06T05:16:30.201Z,3.92
2023-01-06T05:19:00.953Z,4.28
2023-01-06T05:21:40.819Z,5.35
2023-01-06T05:24:16.765Z,3.72
2023-01-06T05:26:47.064Z,3.25
2023-01-06T05:29:20.219Z,6.00
2023-01-06T05:31:53.108Z,4.35
2023-01-06T05:34:23.346Z,6.88
2023-01-06T05:37:00.912Z,4.43
2023-01-06T05:39:33.752Z,4.97
2023-01-06T05:42:03.909Z,5.32
2023-01-06T05:44:34.731Z,5.97
2023-01-06T05:47:04.947Z,5.10
2023-01-06T05:49:35.234Z,4.25
2023-01-06T05:52:05.470Z,6.97
2023-01-06T05:54:39.109Z,5.13
2023-01-06T05:57:13.328Z,10.30
2023-01-06T05:59:43.538Z,5.63
2023-01-06T06:02:13.774Z,8.70
2023-01-06T06:04:51.391Z,4.60
2023-01-06T06:07:21.887Z,4.70
2023-01-06T06:09:55.079Z,3.97
2023-01-06T06:12:33.504Z,5.05
2023-01-06T06:15:06.284Z,4.82
2023-01-06T06:17:43.843Z,4.57
2023-01-06T06:20:18.471Z,7.13
2023-01-06T06:22:48.964Z,6.57
2023-01-06T06:25:21.845Z,3.35
2023-01-06T06:27:52.528Z,6.05
2023-01-06T06:30:22.713Z,4.75
2023-01-06T06:32:52.920Z,5.53
2023-01-06T06:35:25.257Z,7.28
2023-01-06T06:37:56.868Z,7.38
2023-01-06T06:40:31.094Z,5.72
2023-01-06T06:43:01.228Z,6.82
2023-01-06T06:45:31.357Z,5.50
2023-01-06T06:48:02.151Z,5.00
2023-01-06T06:50:32.399Z,7.90
2023-01-06T06:53:03.842Z,7.85
2023-01-06T06:55:38.986Z,6.65
2023-01-06T06:58:10.743Z,7.80
2023-01-06T07:00:41.096Z,6.10
2023-01-06T07:03:11.821Z,6.78
2023-01-06T07:05:42.372Z,7.70
2023-01-06T07:08:12.551Z,5.88
2023-01-06T07:10:45.548Z,6.88
2023-01-06T07:13:16.108Z,6.57
2023-01-06T07:15:46.697Z,5.10
2023-01-06T07:18:22.032Z,4.43
2023-01-06T07:20:54.203Z,6.03
2023-01-06T07:23:25.789Z,6.20
2023-01-06T07:26:01.666Z,4.95
2023-01-06T07:28:34.082Z,4.18
2023-01-06T07:31:10.288Z,6.75
2023-01-06T07:33:40.606Z,6.75
2023-01-06T07:36:11.972Z,4.68
2023-01-06T07:38:42.374Z,4.57
2023-01-06T07:41:15.186Z,4.15
2023-01-06T07:43:48.640Z,4.25
2023-01-06T07:46:19.477Z,4.00
2023-01-06T07:48:49.934Z,3.15
2023-01-06T07:51:27.299Z,3.60
2023-01-06T07:53:57.900Z,3.35
2023-01-06T07:56:32.221Z,5.47
2023-01-06T07:59:10.595Z,3.97
2023-01-06T08:01:43.900Z,5.43
2023-01-06T08:04:16.533Z,3.13
2023-01-06T08:06:47.219Z,4.35
2023-01-06T08:09:20.157Z,4.68
2023-01-06T08:11:55.982Z,4.97
2023-01-06T08:14:27.186Z,4.68
2023-01-06T08:16:57.354Z,4.85
2023-01-06T08:19:27.596Z,4.70
2023-01-06T08:21:58.807Z,6.18
2023-01-06T08:24:31.891Z,3.60
2023-01-06T08:27:05.514Z,4.15
2023-01-06T08:29:35.846Z,3.50
2023-01-06T08:32:10.660Z,4.45
2023-01-06T08:34:41.309Z,6.20
2023-01-06T08:37:12.011Z,4.15
2023-01-06T08:39:42.255Z,4.72
2023-01-06T08:42:18.373Z,5.03
2023-01-06T08:44:48.766Z,3.35
2023-01-06T08:47:18.994Z,5.63
2023-01-06T08:49:51.371Z,5.20
2023-01-06T08:52:21.912Z,4.55
2023-01-06T08:54:54.476Z,5.00
2023-01-06T08:57:29.646Z,4.50
2023-01-06T09:00:10.304Z,4.95
2023-01-06T09:02:40.889Z,6.15
2023-01-06T09:05:13.674Z,5.30
2023-01-06T09:07:43.879Z,4.97
2023-01-06T09:10:17.250Z,6.28
2023-01-06T09:12:50.179Z,11.23
2023-01-06T09:15:20.510Z,4.88
2023-01-06T09:17:50.941Z,5.57
2023-01-06T09:20:21.261Z,4.05
2023-01-06T09:22:51.786Z,5.82
2023-01-06T09:25:22.864Z,4.82
2023-01-06T09:27:58.751Z,4.22
2023-01-06T09:30:32.024Z,5.95
2023-01-06T09:33:03.473Z,4.40
2023-01-06T09:35:36.831Z,10.73
2023-01-06T09:38:07.353Z,5.82
2023-01-06T09:41:05.093Z,4.85
2023-01-06T09:43:51.054Z,4.78
2023-01-06T09:46:25.625Z,6.13
2023-01-06T09:49:03.265Z,2.90
2023-01-06T09:51:39.198Z,4.93
2023-01-06T09:54:18.428Z,3.60
2023-01-06T09:56:53.886Z,5.22
2023-01-06T09:59:35.619Z,4.07
2023-01-06T10:02:16.748Z,7.53
2023-01-06T10:04:50.250Z,3.60
2023-01-06T10:07:35.988Z,4.80
2023-01-06T10:10:29.530Z,5.13
2023-01-06T10:13:12.803Z,5.20
2023-01-06T10:15:56.165Z,5.05
2023-01-06T10:18:34.713Z,5.00
2023-01-06T10:21:17.398Z,5.15
2023-01-06T10:24:21.246Z,4.50
2023-01-06T10:26:57.688Z,3.72
2023-01-06T10:29:32.786Z,5.13
2023-01-06T10:32:13.371Z,4.68
2023-01-06T10:34:44.063Z,4.78
2023-01-06T10:37:22.665Z,4.80
2023-01-06T10:40:01.033Z,4.57
2023-01-06T10:42:53.259Z,5.10
2023-01-06T10:45:23.715Z,4.47
2023-01-06T10:48:00.650Z,6.13
2023-01-06T10:50:31.512Z,4.63
2023-01-06T10:53:01.780Z,4.57
2023-01-06T10:55:44.559Z,5.00
2023-01-06T10:58:36.087Z,3.72
2023-01-06T11:01:12.808Z,4.60
2023-01-06T11:03:51.027Z,4.57
2023-01-06T11:06:30.194Z,4.82
2023-01-06T11:09:01.335Z,5.43
2023-01-06T11:11:31.791Z,3.95
2023-01-06T11:14:08.087Z,4.20
2023-01-06T11:16:40.143Z,4.45
2023-01-06T11:19:27.864Z,4.43
2023-01-06T11:22:00.489Z,3.55
2023-01-06T11:24:33.378Z,5.13
2023-01-06T11:27:07.412Z,3.85
2023-01-06T11:29:44.749Z,4.68
2023-01-06T11:32:21.837Z,4.00
2023-01-06T11:34:58.787Z,6.18
2023-01-06T11:37:40.596Z,3.80
2023-01-06T11:40:21.976Z,5.75
2023-01-06T11:42:55.463Z,7.57
2023-01-06T11:45:37.024Z,4.85
2023-01-06T11:48:10.345Z,5.18
2023-01-06T11:50:43.627Z,7.00
2023-01-06T11:53:21.465Z,4.67
2023-01-06T11:56:02.969Z,5.72
2023-01-06T11:59:07.236Z,6.63
2023-01-06T12:01:44.581Z,6.05
2023-01-06T12:04:25.253Z,4.72
2023-01-06T12:07:03.012Z,4.88
2023-01-06T12:09:39.475Z,5.57
2023-01-06T12:12:15.904Z,5.65
2023-01-06T12:14:49.504Z,6.55
2023-01-06T12:17:30.377Z,4.57
2023-01-06T12:20:04.180Z,5.28
2023-01-06T12:22:41.796Z,8.15
2023-01-06T12:25:18.721Z,6.97
2023-01-06T12:27:54.139Z,5.15
2023-01-06T12:30:33.969Z,5.03
2023-01-06T12:33:08.305Z,6.82
2023-01-06T12:35:45.317Z,6.22
2023-01-06T12:38:44.454Z,4.72
2023-01-06T12:41:20.170Z,5.35
2023-01-06T12:43:57.132Z,5.95
2023-01-06T12:46:32.172Z,6.30
2023-01-06T12:49:07.219Z,5.65
2023-01-06T12:51:42.275Z,4.80
2023-01-06T12:54:24.855Z,5.45
2023-01-06T12:57:09.788Z,6.32
2023-01-06T12:59:52.773Z,4.93
2023-01-06T13:02:49.494Z,4.97
2023-01-06T13:05:30.875Z,5.18
2023-01-06T13:10:49.218Z,6.15
2023-01-06T13:13:49.459Z,8.60
2023-01-06T13:16:28.421Z,4.90
2023-01-06T13:19:07.775Z,5.18
2023-01-06T13:21:43.734Z,4.65
2023-01-06T13:24:58.087Z,3.50
2023-01-06T13:27:56.015Z,6.47
2023-01-06T13:30:45.915Z,4.95
2023-01-06T13:33:34.395Z,4.60
2023-01-06T13:36:35.166Z,5.53
2023-01-06T13:39:12.230Z,5.85
2023-01-06T13:41:48.814Z,6.95
2023-01-06T13:44:26.441Z,5.15
2023-01-06T13:47:07.798Z,6.18
2023-01-06T13:49:41.580Z,8.45
2023-01-06T13:52:24.612Z,7.68
2023-01-06T13:55:26.244Z,5.00
2023-01-06T13:57:57.008Z,5.65
2023-01-06T14:00:31.814Z,5.45
2023-01-06T14:03:27.242Z,7.22
2023-01-06T14:06:02.246Z,5.20
2023-01-06T14:08:42.789Z,4.47
2023-01-06T14:11:29.812Z,5.97
2023-01-06T14:14:04.596Z,7.65
2023-01-06T14:16:52.046Z,5.13
2023-01-06T14:19:32.075Z,8.73
2023-01-06T14:22:18.039Z,10.68
2023-01-06T14:24:53.000Z,10.35
2023-01-06T14:27:52.829Z,10.88
2023-01-06T14:30:24.239Z,6.35
2023-01-06T14:33:33.531Z,7.63
2023-01-06T14:36:08.095Z,7.30
2023-01-06T14:38:46.881Z,6.97
2023-01-06T14:41:23.432Z,8.00
2023-01-06T14:44:01.722Z,7.88
2023-01-06T14:46:35.554Z,9.73
2023-01-06T14:49:16.924Z,7.65
2023-01-06T14:51:52.847Z,9.32
2023-01-06T14:54:28.970Z,13.65
2023-01-06T14:57:03.679Z,10.90
2023-01-06T14:59:37.475Z,9.27
2023-01-06T15:02:18.659Z,6.82
2023-01-06T15:04:59.509Z,6.45
2023-01-06T15:07:30.636Z,8.35
2023-01-06T15:10:21.208Z,6.55
2023-01-06T15:12:57.673Z,8.25
2023-01-06T15:15:38.259Z,7.10
2023-01-06T15:18:17.464Z,6.80
2023-01-06T15:20:50.791Z,8.07
2023-01-06T15:23:24.082Z,7.57
2023-01-06T15:25:56.659Z,8.35
2023-01-06T15:28:30.707Z,6.35
2023-01-06T15:33:38.760Z,6.38
2023-01-06T15:36:18.360Z,10.07
2023-01-06T15:38:52.485Z,6.53
2023-01-06T15:41:36.989Z,8.65
2023-01-06T15:44:24.540Z,7.47
2023-01-06T15:47:11.249Z,8.02
2023-01-06T15:49:46.074Z,9.02
2023-01-06T15:52:26.509Z,9.70
2023-01-06T15:54:59.595Z,8.13
2023-01-06T15:57:32.426Z,11.23
2023-01-06T16:00:11.096Z,14.18
2023-01-06T16:02:42.788Z,10.85
2023-01-06T16:05:48.725Z,8.70
2023-01-06T16:08:27.488Z,12.82
2023-01-06T16:11:43.651Z,9.00
2023-01-06T16:14:32.301Z,10.00
2023-01-06T16:17:32.074Z,10.60
2023-01-06T16:20:06.267Z,8.88
2023-01-06T16:22:51.235Z,11.45
2023-01-06T16:28:02.303Z,10.18
2023-01-06T16:30:33.811Z,10.10
2023-01-06T16:33:04.212Z,12.57
2023-01-06T16:35:36.106Z,17.85
2023-01-06T16:38:09.363Z,18.42
2023-01-06T16:40:46.646Z,21.45
2023-01-06T16:43:17.912Z,21.40
2023-01-06T16:45:52.146Z,18.38
2023-01-06T16:48:22.441Z,18.05
2023-01-06T16:50:56.588Z,17.33
2023-01-06T16:53:33.646Z,20.85
2023-01-06T16:56:17.579Z,16.30
2023-01-06T16:58:58.753Z,14.68
2023-01-06T17:01:29.285Z,12.82
2023-01-06T17:04:01.063Z,18.95
2023-01-06T17:06:34.621Z,16.60
2023-01-06T17:09:19.852Z,21.42
2023-01-06T17:11:56.714Z,27.02
2023-01-06T17:14:27.809Z,26.23
2023-01-06T17:17:06.561Z,31.77
2023-01-06T17:19:40.033Z,44.00
2023-01-06T17:22:21.942Z,49.30
2023-01-06T17:24:53.533Z,34.03
2023-01-06T17:27:28.273Z,37.30
2023-01-06T17:30:06.732Z,32.95
2023-01-06T17:32:41.204Z,30.20
2023-01-06T17:35:26.591Z,35.40
2023-01-06T17:37:59.335Z,31.88
2023-01-06T17:40:36.927Z,34.55
2023-01-06T17:43:20.242Z,28.35
2023-01-06T17:45:59.383Z,33.97
2023-01-06T17:48:29.980Z,33.60
2023-01-06T17:51:03.772Z,28.00
2023-01-06T17:53:51.151Z,27.10
2023-01-06T17:56:21.328Z,26.67
2023-01-06T17:58:56.245Z,22.10
2023-01-06T18:01:30.280Z,24.70
2023-01-06T18:04:01.161Z,23.20
2023-01-06T18:06:37.989Z,22.25
2023-01-06T18:09:18.343Z,25.95
2023-01-06T18:11:51.650Z,26.92
2023-01-06T18:14:34.716Z,30.10
2023-01-06T18:17:21.422Z,28.83
2023-01-06T18:19:55.371Z,32.97
2023-01-06T18:22:29.213Z,38.70
2023-01-06T18:25:04.002Z,30.40
2023-01-06T18:27:39.039Z,32.53
2023-01-06T18:32:54.875Z,26.08
2023-01-06T18:35:29.118Z,31.38
2023-01-06T18:38:05.749Z,31.58
2023-01-06T18:40:37.208Z,32.58
2023-01-06T18:43:26.406Z,30.45
2023-01-06T18:46:05.080Z,27.48
2023-01-06T18:48:39.580Z,27.08
2023-01-06T18:53:53.519Z,27.73
2023-01-06T18:56:27.196Z,37.72
2023-01-06T18:59:00.141Z,32.42
2023-01-06T19:01:41.386Z,32.83
2023-01-06T19:04:22.323Z,30.70
2023-01-06T19:06:55.889Z,37.10
2023-01-06T19:09:34.185Z,39.20
2023-01-06T19:12:13.669Z,36.65
2023-01-06T19:14:51.575Z,31.45
2023-01-06T19:17:28.201Z,28.83
2023-01-06T19:20:02.379Z,32.72
2023-01-06T19:22:36.357Z,35.95
2023-01-06T19:27:51.170Z,37.08
2023-01-06T19:30:43.838Z,39.17
2023-01-06T19:33:35.249Z,43.45
2023-01-06T19:36:31.704Z,36.55
2023-01-06T19:39:04.159Z,37.22
2023-01-06T19:41:36.046Z,41.40
2023-01-06T19:44:15.932Z,37.47
2023-01-06T19:46:51.180Z,38.15
2023-01-06T19:49:29.055Z,45.40
2023-01-06T19:52:02.129Z,42.17
2023-01-06T19:54:37.295Z,39.55
2023-01-06T19:57:25.653Z,40.25
2023-01-06T20:00:06.982Z,38.30
2023-01-06T20:02:45.977Z,35.03
2023-01-06T20:05:25.288Z,34.40
2023-01-06T20:07:58.864Z,35.55
2023-01-06T20:10:31.665Z,31.17
2023-01-06T20:13:10.157Z,31.13
2023-01-06T20:15:45.891Z,30.13
2023-01-06T20:18:19.199Z,33.25
2023-01-06T20:20:52.526Z,30.85
2023-01-06T20:23:25.789Z,33.05
2023-01-06T20:26:00.181Z,31.15
2023-01-06T20:28:33.526Z,28.60
2023-01-06T20:31:11.014Z,27.00
2023-01-06T20:33:44.390Z,25.08
2023-01-06T20:36:22.888Z,25.05
2023-01-06T20:38:56.047Z,23.50
2023-01-06T20:41:26.309Z,19.88
2023-01-06T20:43:56.771Z,21.23
2023-01-06T20:46:31.337Z,23.67
2023-01-06T20:49:02.139Z,17.60
2023-01-06T20:51:34.931Z,19.55
2023-01-06T20:54:06.711Z,19.58
2023-01-06T20:56:36.899Z,18.00
2023-01-06T20:59:09.859Z,15.70
2023-01-06T21:01:40.167Z,17.70
2023-01-06T21:04:13.541Z,17.85
2023-01-06T21:06:51.547Z,18.90
2023-01-06T21:09:28.302Z,25.60
2023-01-06T21:11:59.062Z,27.65
2023-01-06T21:14:29.585Z,29.25
2023-01-06T21:17:02.910Z,30.63
2023-01-06T21:19:34.437Z,32.58
2023-01-06T21:22:07.248Z,30.10
2023-01-06T21:24:37.510Z,33.35
2023-01-06T21:27:10.143Z,21.70
2023-01-06T21:29:43.999Z,28.45
2023-01-06T21:32:16.630Z,28.27
2023-01-06T21:34:50.100Z,26.80
2023-01-06T21:37:25.891Z,28.67
2023-01-06T21:39:56.311Z,29.40
2023-01-06T21:42:38.887Z,26.35
2023-01-06T21:45:11.026Z,26.58
2023-01-06T21:47:43.768Z,25.17
2023-01-06T21:50:14.513Z,24.88
2023-01-06T21:52:48.091Z,27.05
2023-01-06T21:55:20.088Z,26.88
2023-01-06T21:57:51.148Z,21.75
2023-01-06T22:00:24.670Z,23.23
2023-01-06T22:02:58.298Z,23.70
2023-01-06T22:05:29.862Z,20.75
2023-01-06T22:08:03.279Z,23.20
2023-01-06T22:10:34.042Z,23.02
2023-01-06T22:13:04.758Z,20.08
2023-01-06T22:15:37.021Z,18.92
2023-01-06T22:18:10.488Z,19.52
2023-01-06T22:20:43.701Z,19.20
2023-01-06T22:23:20.536Z,16.97
2023-01-06T22:25:53.360Z,19.08
2023-01-06T22:28:23.699Z,17.40
2023-01-06T22:31:04.379Z,21.35
2023-01-06T22:33:34.811Z,27.63
2023-01-06T22:36:05.514Z,27.25
2023-01-06T22:38:38.603Z,28.50
2023-01-06T22:41:12.763Z,24.17
2023-01-06T22:46:15.421Z,27.73
2023-01-06T22:48:46.322Z,28.55
2023-01-06T22:51:16.681Z,29.35
2023-01-06T22:53:49.768Z,25.13
2023-01-06T22:56:22.615Z,27.20
2023-01-06T22:58:53.979Z,25.80
2023-01-06T23:01:25.387Z,23.30
2023-01-06T23:03:55.671Z,22.52
2023-01-06T23:06:26.996Z,22.00
2023-01-06T23:09:06.701Z,19.13
2023-01-06T23:11:41.622Z,21.10
2023-01-06T23:14:19.435Z,26.95
2023-01-06T23:16:49.559Z,24.52
2023-01-06T23:19:19.898Z,22.73
2023-01-06T23:21:52.506Z,21.33
2023-01-06T23:24:25.717Z,19.15
2023-01-06T23:26:56.085Z,20.00
2023-01-06T23:29:29.463Z,20.98
2023-01-06T23:31:59.643Z,20.40
2023-01-06T23:34:30.563Z,16.35
2023-01-06T23:37:01.287Z,19.48
2023-01-06T23:39:34.097Z,16.35
2023-01-06T23:42:05.658Z,18.23
2023-01-06T23:44:36.142Z,18.40
2023-01-06T23:47:08.170Z,14.10
2023-01-06T23:49:39.055Z,16.33
2023-01-06T23:52:14.148Z,14.10
2023-01-06T23:54:51.499Z,15.77
2023-01-06T23:57:24.350Z,14.45
2023-01-06T23:59:54.534Z,13.00
